<?xml version="1.0" encoding="UTF-8" standalone="no" ?>
<gpx xmlns="http://www.topografix.com/GPX/1/1" xmlns:xsi="http://www.w3.org/2001/XMLSchema-instance" xsi:schemaLocation="http://www.topografix.com/GPX/1/1 http://www.topografix.com/GPX/1/1/gpx.xsd" version="1.1" creator="VisuGPX - https://www.visugpx.com">
  <metadata>
    <name>Suède</name>
  </metadata>
  <trk>
    <name><![CDATA[Tour d'Europe: étape 091]]></name>
    <trkseg>
      <trkpt lat="65.31674" lon="21.47726">
        <ele>73.23655</ele>
        <time>2020-09-27T07:44:53.840Z</time>
      </trkpt>
      <trkpt lat="65.3174" lon="21.473">
        <ele>47.790803</ele>
        <time>2020-09-27T07:47:21.842Z</time>
      </trkpt>
      <trkpt lat="65.31734" lon="21.46829">
        <ele>27.474875</ele>
        <time>2020-09-27T07:48:18.860Z</time>
      </trkpt>
      <trkpt lat="65.31747" lon="21.46369">
        <ele>27.665698</ele>
        <time>2020-09-27T07:48:58.846Z</time>
      </trkpt>
      <trkpt lat="65.3172" lon="21.45888">
        <ele>31.853529</ele>
        <time>2020-09-27T07:49:40.847Z</time>
      </trkpt>
      <trkpt lat="65.31689" lon="21.45326">
        <ele>31.736834</ele>
        <time>2020-09-27T07:50:32.851Z</time>
      </trkpt>
      <trkpt lat="65.31725" lon="21.44791">
        <ele>28.936614</ele>
        <time>2020-09-27T07:51:24.843Z</time>
      </trkpt>
      <trkpt lat="65.31691" lon="21.4427">
        <ele>31.611482</ele>
        <time>2020-09-27T07:52:25.834Z</time>
      </trkpt>
      <trkpt lat="65.317" lon="21.43692">
        <ele>31.679122</ele>
        <time>2020-09-27T07:53:21.836Z</time>
      </trkpt>
      <trkpt lat="65.31689" lon="21.43104">
        <ele>31.107976</ele>
        <time>2020-09-27T07:54:20.844Z</time>
      </trkpt>
      <trkpt lat="65.3162" lon="21.4266">
        <ele>32.545302</ele>
        <time>2020-09-27T07:55:15.837Z</time>
      </trkpt>
      <trkpt lat="65.31474" lon="21.42381">
        <ele>32.880884</ele>
        <time>2020-09-27T07:55:57.843Z</time>
      </trkpt>
      <trkpt lat="65.31355" lon="21.41987">
        <ele>29.029813</ele>
        <time>2020-09-27T07:56:47.831Z</time>
      </trkpt>
      <trkpt lat="65.3123" lon="21.41521">
        <ele>34.444869</ele>
        <time>2020-09-27T07:57:51.844Z</time>
      </trkpt>
      <trkpt lat="65.31067" lon="21.41148">
        <ele>32.941074</ele>
        <time>2020-09-27T07:58:56.865Z</time>
      </trkpt>
      <trkpt lat="65.30839" lon="21.40984">
        <ele>29.945825</ele>
        <time>2020-09-27T07:59:38.843Z</time>
      </trkpt>
      <trkpt lat="65.30712" lon="21.40719">
        <ele>41.601947</ele>
        <time>2020-09-27T08:00:41.850Z</time>
      </trkpt>
      <trkpt lat="65.3052" lon="21.40562">
        <ele>58.215977</ele>
        <time>2020-09-27T08:02:26.846Z</time>
      </trkpt>
      <trkpt lat="65.30314" lon="21.40486">
        <ele>56.122895</ele>
        <time>2020-09-27T08:03:39.879Z</time>
      </trkpt>
      <trkpt lat="65.30177" lon="21.40812">
        <ele>45.630628</ele>
        <time>2020-09-27T08:04:21.854Z</time>
      </trkpt>
      <trkpt lat="65.29975" lon="21.41246">
        <ele>35.599929</ele>
        <time>2020-09-27T08:05:03.842Z</time>
      </trkpt>
      <trkpt lat="65.29724" lon="21.41359">
        <ele>30.147736</ele>
        <time>2020-09-27T08:05:45.872Z</time>
      </trkpt>
      <trkpt lat="65.29519" lon="21.41344">
        <ele>37.833953</ele>
        <time>2020-09-27T08:06:34.868Z</time>
      </trkpt>
      <trkpt lat="65.29291" lon="21.41365">
        <ele>38.989212</ele>
        <time>2020-09-27T08:07:27.828Z</time>
      </trkpt>
      <trkpt lat="65.29064" lon="21.41352">
        <ele>33.616221</ele>
        <time>2020-09-27T08:08:12.829Z</time>
      </trkpt>
      <trkpt lat="65.2883" lon="21.41299">
        <ele>30.837477</ele>
        <time>2020-09-27T08:08:55.839Z</time>
      </trkpt>
      <trkpt lat="65.28629" lon="21.41094">
        <ele>31.950424</ele>
        <time>2020-09-27T08:09:55.831Z</time>
      </trkpt>
      <trkpt lat="65.2842" lon="21.40752">
        <ele>33.659137</ele>
        <time>2020-09-27T08:10:56.828Z</time>
      </trkpt>
      <trkpt lat="65.28205" lon="21.40421">
        <ele>35.509368</ele>
        <time>2020-09-27T08:11:59.843Z</time>
      </trkpt>
      <trkpt lat="65.28038" lon="21.40101">
        <ele>40.402669</ele>
        <time>2020-09-27T08:13:01.848Z</time>
      </trkpt>
      <trkpt lat="65.2789" lon="21.39645">
        <ele>36.165722</ele>
        <time>2020-09-27T08:13:46.846Z</time>
      </trkpt>
      <trkpt lat="65.278" lon="21.39142">
        <ele>37.527017</ele>
        <time>2020-09-27T08:14:36.828Z</time>
      </trkpt>
      <trkpt lat="65.27755" lon="21.38653">
        <ele>38.883104</ele>
        <time>2020-09-27T08:15:44.876Z</time>
      </trkpt>
      <trkpt lat="65.277" lon="21.38148">
        <ele>46.796842</ele>
        <time>2020-09-27T08:16:49.858Z</time>
      </trkpt>
      <trkpt lat="65.2762" lon="21.37636">
        <ele>43.88281</ele>
        <time>2020-09-27T08:17:31.837Z</time>
      </trkpt>
      <trkpt lat="65.27537" lon="21.37166">
        <ele>49.028722</ele>
        <time>2020-09-27T08:18:38.891Z</time>
      </trkpt>
      <trkpt lat="65.27443" lon="21.36693">
        <ele>54.003167</ele>
        <time>2020-09-27T08:19:53.867Z</time>
      </trkpt>
      <trkpt lat="65.27323" lon="21.36175">
        <ele>54.311527</ele>
        <time>2020-09-27T08:20:56.860Z</time>
      </trkpt>
      <trkpt lat="65.27219" lon="21.35719">
        <ele>59.795657</ele>
        <time>2020-09-27T08:21:57.835Z</time>
      </trkpt>
      <trkpt lat="65.27128" lon="21.3525">
        <ele>66.490173</ele>
        <time>2020-09-27T08:23:21.835Z</time>
      </trkpt>
      <trkpt lat="65.27056" lon="21.34799">
        <ele>74.172268</ele>
        <time>2020-09-27T08:24:47.863Z</time>
      </trkpt>
      <trkpt lat="65.26991" lon="21.34317">
        <ele>81.465334</ele>
        <time>2020-09-27T08:26:03.843Z</time>
      </trkpt>
      <trkpt lat="65.26929" lon="21.33802">
        <ele>79.986116</ele>
        <time>2020-09-27T08:27:03.857Z</time>
      </trkpt>
      <trkpt lat="65.26873" lon="21.33219">
        <ele>82.740409</ele>
        <time>2020-09-27T08:28:06.861Z</time>
      </trkpt>
      <trkpt lat="65.26831" lon="21.32724">
        <ele>84.876357</ele>
        <time>2020-09-27T08:29:09.848Z</time>
      </trkpt>
      <trkpt lat="65.26789" lon="21.32217">
        <ele>81.849405</ele>
        <time>2020-09-27T08:30:09.870Z</time>
      </trkpt>
      <trkpt lat="65.26742" lon="21.31648">
        <ele>76.045517</ele>
        <time>2020-09-27T08:30:51.846Z</time>
      </trkpt>
      <trkpt lat="65.26695" lon="21.31105">
        <ele>69.250599</ele>
        <time>2020-09-27T08:31:33.845Z</time>
      </trkpt>
      <trkpt lat="65.26655" lon="21.30583">
        <ele>68.177648</ele>
        <time>2020-09-27T08:32:13.864Z</time>
      </trkpt>
      <trkpt lat="65.26609" lon="21.30047">
        <ele>72.706735</ele>
        <time>2020-09-27T08:33:06.848Z</time>
      </trkpt>
      <trkpt lat="65.26567" lon="21.29531">
        <ele>72.251319</ele>
        <time>2020-09-27T08:33:48.853Z</time>
      </trkpt>
      <trkpt lat="65.26444" lon="21.29269">
        <ele>75.091685</ele>
        <time>2020-09-27T08:34:46.877Z</time>
      </trkpt>
      <trkpt lat="65.26205" lon="21.29402">
        <ele>71.989172</ele>
        <time>2020-09-27T08:35:34.867Z</time>
      </trkpt>
      <trkpt lat="65.25958" lon="21.29368">
        <ele>72.531838</ele>
        <time>2020-09-27T08:36:26.857Z</time>
      </trkpt>
      <trkpt lat="65.25749" lon="21.29343">
        <ele>76.099034</ele>
        <time>2020-09-27T08:37:15.928Z</time>
      </trkpt>
      <trkpt lat="65.25543" lon="21.29447">
        <ele>77.522855</ele>
        <time>2020-09-27T08:38:04.862Z</time>
      </trkpt>
      <trkpt lat="65.25331" lon="21.29461">
        <ele>92.828654</ele>
        <time>2020-09-27T08:39:34.837Z</time>
      </trkpt>
      <trkpt lat="65.25115" lon="21.2935">
        <ele>97.760562</ele>
        <time>2020-09-27T08:40:49.857Z</time>
      </trkpt>
      <trkpt lat="65.24916" lon="21.29269">
        <ele>94.214455</ele>
        <time>2020-09-27T08:41:32.845Z</time>
      </trkpt>
      <trkpt lat="65.24685" lon="21.29201">
        <ele>88.532741</ele>
        <time>2020-09-27T08:42:14.858Z</time>
      </trkpt>
      <trkpt lat="65.24433" lon="21.29163">
        <ele>78.110491</ele>
        <time>2020-09-27T08:42:56.862Z</time>
      </trkpt>
      <trkpt lat="65.24231" lon="21.29144">
        <ele>78.296299</ele>
        <time>2020-09-27T08:43:36.857Z</time>
      </trkpt>
      <trkpt lat="65.24007" lon="21.29127">
        <ele>80.607678</ele>
        <time>2020-09-27T08:44:26.847Z</time>
      </trkpt>
      <trkpt lat="65.23771" lon="21.29149">
        <ele>88.690687</ele>
        <time>2020-09-27T08:45:29.854Z</time>
      </trkpt>
      <trkpt lat="65.23551" lon="21.29243">
        <ele>86.450924</ele>
        <time>2020-09-27T08:46:14.855Z</time>
      </trkpt>
      <trkpt lat="65.23297" lon="21.29423">
        <ele>76.650325</ele>
        <time>2020-09-27T08:46:56.858Z</time>
      </trkpt>
      <trkpt lat="65.23063" lon="21.29543">
        <ele>75.714014</ele>
        <time>2020-09-27T08:47:38.851Z</time>
      </trkpt>
      <trkpt lat="65.2286" lon="21.29512">
        <ele>77.832125</ele>
        <time>2020-09-27T08:48:20.859Z</time>
      </trkpt>
      <trkpt lat="65.22627" lon="21.2932">
        <ele>68.08365</ele>
        <time>2020-09-27T08:49:02.876Z</time>
      </trkpt>
      <trkpt lat="65.22418" lon="21.28972">
        <ele>61.996008</ele>
        <time>2020-09-27T08:49:44.850Z</time>
      </trkpt>
      <trkpt lat="65.22281" lon="21.28569">
        <ele>70.692564</ele>
        <time>2020-09-27T08:50:51.841Z</time>
      </trkpt>
      <trkpt lat="65.22183" lon="21.28131">
        <ele>70.569915</ele>
        <time>2020-09-27T08:51:44.875Z</time>
      </trkpt>
      <trkpt lat="65.22111" lon="21.276">
        <ele>66.728583</ele>
        <time>2020-09-27T08:52:38.854Z</time>
      </trkpt>
      <trkpt lat="65.22039" lon="21.27055">
        <ele>64.45865</ele>
        <time>2020-09-27T08:53:29.883Z</time>
      </trkpt>
      <trkpt lat="65.21975" lon="21.2655">
        <ele>69.058827</ele>
        <time>2020-09-27T08:54:21.861Z</time>
      </trkpt>
      <trkpt lat="65.2191" lon="21.26028">
        <ele>71.733745</ele>
        <time>2020-09-27T08:55:11.876Z</time>
      </trkpt>
      <trkpt lat="65.2183" lon="21.25512">
        <ele>76.99506</ele>
        <time>2020-09-27T08:56:21.862Z</time>
      </trkpt>
      <trkpt lat="65.21738" lon="21.25074">
        <ele>80.805838</ele>
        <time>2020-09-27T08:57:42.882Z</time>
      </trkpt>
      <trkpt lat="65.21642" lon="21.24625">
        <ele>83.454054</ele>
        <time>2020-09-27T08:58:46.842Z</time>
      </trkpt>
      <trkpt lat="65.21537" lon="21.24163">
        <ele>81.515578</ele>
        <time>2020-09-27T08:59:56.863Z</time>
      </trkpt>
      <trkpt lat="65.21444" lon="21.23736">
        <ele>89.656372</ele>
        <time>2020-09-27T09:01:29.860Z</time>
      </trkpt>
      <trkpt lat="65.21345" lon="21.23276">
        <ele>105.118382</ele>
        <time>2020-09-27T09:03:13.898Z</time>
      </trkpt>
      <trkpt lat="65.21246" lon="21.22826">
        <ele>118.66881</ele>
        <time>2020-09-27T09:04:54.871Z</time>
      </trkpt>
      <trkpt lat="65.21152" lon="21.22392">
        <ele>125.901988</ele>
        <time>2020-09-27T09:06:31.894Z</time>
      </trkpt>
      <trkpt lat="65.2105" lon="21.21927">
        <ele>130.052493</ele>
        <time>2020-09-27T09:07:56.871Z</time>
      </trkpt>
      <trkpt lat="65.20955" lon="21.21484">
        <ele>143.144141</ele>
        <time>2020-09-27T09:09:20.850Z</time>
      </trkpt>
      <trkpt lat="65.20857" lon="21.21041">
        <ele>137.622931</ele>
        <time>2020-09-27T09:10:33.872Z</time>
      </trkpt>
      <trkpt lat="65.20742" lon="21.20527">
        <ele>135.507179</ele>
        <time>2020-09-27T09:11:33.859Z</time>
      </trkpt>
      <trkpt lat="65.20631" lon="21.20011">
        <ele>140.978881</ele>
        <time>2020-09-27T09:12:33.879Z</time>
      </trkpt>
      <trkpt lat="65.20525" lon="21.1952">
        <ele>152.150645</ele>
        <time>2020-09-27T09:13:52.859Z</time>
      </trkpt>
      <trkpt lat="65.20428" lon="21.19081">
        <ele>153.293296</ele>
        <time>2020-09-27T09:15:03.891Z</time>
      </trkpt>
      <trkpt lat="65.20333" lon="21.18648">
        <ele>160.674817</ele>
        <time>2020-09-27T09:16:22.885Z</time>
      </trkpt>
      <trkpt lat="65.20253" lon="21.18188">
        <ele>169.856616</ele>
        <time>2020-09-27T09:17:51.864Z</time>
      </trkpt>
      <trkpt lat="65.2025" lon="21.17708">
        <ele>165.170709</ele>
        <time>2020-09-27T09:18:51.866Z</time>
      </trkpt>
      <trkpt lat="65.20237" lon="21.17156">
        <ele>164.009377</ele>
        <time>2020-09-27T09:19:54.865Z</time>
      </trkpt>
      <trkpt lat="65.20181" lon="21.16571">
        <ele>167.63535</ele>
        <time>2020-09-27T09:20:57.900Z</time>
      </trkpt>
      <trkpt lat="65.20127" lon="21.16029">
        <ele>167.342262</ele>
        <time>2020-09-27T09:21:50.861Z</time>
      </trkpt>
      <trkpt lat="65.20074" lon="21.15492">
        <ele>162.341771</ele>
        <time>2020-09-27T09:22:34.874Z</time>
      </trkpt>
      <trkpt lat="65.20019" lon="21.14947">
        <ele>159.222665</ele>
        <time>2020-09-27T09:23:16.851Z</time>
      </trkpt>
      <trkpt lat="65.19969" lon="21.14449">
        <ele>159.316186</ele>
        <time>2020-09-27T09:23:56.876Z</time>
      </trkpt>
      <trkpt lat="65.19921" lon="21.13969">
        <ele>160.104936</ele>
        <time>2020-09-27T09:24:39.869Z</time>
      </trkpt>
      <trkpt lat="65.19871" lon="21.13476">
        <ele>159.272229</ele>
        <time>2020-09-27T09:25:21.876Z</time>
      </trkpt>
      <trkpt lat="65.19821" lon="21.12969">
        <ele>161.165263</ele>
        <time>2020-09-27T09:26:03.876Z</time>
      </trkpt>
      <trkpt lat="65.19768" lon="21.12432">
        <ele>161.052629</ele>
        <time>2020-09-27T09:26:43.893Z</time>
      </trkpt>
      <trkpt lat="65.19708" lon="21.11865">
        <ele>154.853915</ele>
        <time>2020-09-27T09:27:25.851Z</time>
      </trkpt>
      <trkpt lat="65.19653" lon="21.11307">
        <ele>149.341362</ele>
        <time>2020-09-27T09:28:07.893Z</time>
      </trkpt>
      <trkpt lat="65.19605" lon="21.10821">
        <ele>151.884121</ele>
        <time>2020-09-27T09:28:47.896Z</time>
      </trkpt>
      <trkpt lat="65.19549" lon="21.10266">
        <ele>156.564414</ele>
        <time>2020-09-27T09:29:46.890Z</time>
      </trkpt>
      <trkpt lat="65.19492" lon="21.09744">
        <ele>159.082726</ele>
        <time>2020-09-27T09:30:31.898Z</time>
      </trkpt>
      <trkpt lat="65.19398" lon="21.0928">
        <ele>150.013104</ele>
        <time>2020-09-27T09:31:23.856Z</time>
      </trkpt>
      <trkpt lat="65.1929" lon="21.08823">
        <ele>145.879168</ele>
        <time>2020-09-27T09:32:05.865Z</time>
      </trkpt>
      <trkpt lat="65.19194" lon="21.08414">
        <ele>147.893068</ele>
        <time>2020-09-27T09:32:47.855Z</time>
      </trkpt>
      <trkpt lat="65.19085" lon="21.07944">
        <ele>149.420475</ele>
        <time>2020-09-27T09:33:36.864Z</time>
      </trkpt>
      <trkpt lat="65.18968" lon="21.07443">
        <ele>145.940506</ele>
        <time>2020-09-27T09:34:18.850Z</time>
      </trkpt>
      <trkpt lat="65.18856" lon="21.06968">
        <ele>146.83942</ele>
        <time>2020-09-27T09:35:00.876Z</time>
      </trkpt>
      <trkpt lat="65.18732" lon="21.06575">
        <ele>146.229608</ele>
        <time>2020-09-27T09:35:40.887Z</time>
      </trkpt>
      <trkpt lat="65.18582" lon="21.06197">
        <ele>144.990268</ele>
        <time>2020-09-27T09:36:22.875Z</time>
      </trkpt>
      <trkpt lat="65.18428" lon="21.05785">
        <ele>146.324166</ele>
        <time>2020-09-27T09:37:07.872Z</time>
      </trkpt>
      <trkpt lat="65.18314" lon="21.05359">
        <ele>153.784668</ele>
        <time>2020-09-27T09:38:31.866Z</time>
      </trkpt>
      <trkpt lat="65.18166" lon="21.05042">
        <ele>159.698526</ele>
        <time>2020-09-27T09:39:51.856Z</time>
      </trkpt>
      <trkpt lat="65.17968" lon="21.04882">
        <ele>166.103738</ele>
        <time>2020-09-27T09:41:16.905Z</time>
      </trkpt>
      <trkpt lat="65.17768" lon="21.04671">
        <ele>170.682526</ele>
        <time>2020-09-27T09:42:34.869Z</time>
      </trkpt>
      <trkpt lat="65.17558" lon="21.04616">
        <ele>170.231769</ele>
        <time>2020-09-27T09:43:42.897Z</time>
      </trkpt>
      <trkpt lat="65.17354" lon="21.04469">
        <ele>174.842369</ele>
        <time>2020-09-27T09:44:45.869Z</time>
      </trkpt>
      <trkpt lat="65.17161" lon="21.04337">
        <ele>178.925413</ele>
        <time>2020-09-27T09:45:49.880Z</time>
      </trkpt>
      <trkpt lat="65.16961" lon="21.04426">
        <ele>177.375081</ele>
        <time>2020-09-27T09:46:49.867Z</time>
      </trkpt>
      <trkpt lat="65.16742" lon="21.04471">
        <ele>177.014948</ele>
        <time>2020-09-27T09:47:32.884Z</time>
      </trkpt>
      <trkpt lat="65.16505" lon="21.04357">
        <ele>177.562153</ele>
        <time>2020-09-27T09:48:27.866Z</time>
      </trkpt>
      <trkpt lat="65.16248" lon="21.04116">
        <ele>168.688314</ele>
        <time>2020-09-27T09:49:06.878Z</time>
      </trkpt>
      <trkpt lat="65.16049" lon="21.03915">
        <ele>161.65875</ele>
        <time>2020-09-27T09:49:29.885Z</time>
      </trkpt>
      <trkpt lat="65.15769" lon="21.0361">
        <ele>155.854994</ele>
        <time>2020-09-27T09:50:07.879Z</time>
      </trkpt>
      <trkpt lat="65.15479" lon="21.03343">
        <ele>146.429692</ele>
        <time>2020-09-27T09:50:47.927Z</time>
      </trkpt>
      <trkpt lat="65.15222" lon="21.03334">
        <ele>136.586041</ele>
        <time>2020-09-27T09:51:16.882Z</time>
      </trkpt>
      <trkpt lat="65.15081" lon="21.02997">
        <ele>130.519606</ele>
        <time>2020-09-27T09:51:37.867Z</time>
      </trkpt>
      <trkpt lat="65.14859" lon="21.02807">
        <ele>124.74879</ele>
        <time>2020-09-27T09:52:08.882Z</time>
      </trkpt>
      <trkpt lat="65.1463" lon="21.02772">
        <ele>116.991267</ele>
        <time>2020-09-27T09:52:33.888Z</time>
      </trkpt>
      <trkpt lat="65.14395" lon="21.02616">
        <ele>116.512339</ele>
        <time>2020-09-27T09:53:21.874Z</time>
      </trkpt>
      <trkpt lat="65.14134" lon="21.02449">
        <ele>109.948926</ele>
        <time>2020-09-27T09:53:55.919Z</time>
      </trkpt>
      <trkpt lat="65.13915" lon="21.02312">
        <ele>111.749529</ele>
        <time>2020-09-27T09:54:43.876Z</time>
      </trkpt>
      <trkpt lat="65.137" lon="21.02089">
        <ele>112.45634</ele>
        <time>2020-09-27T09:55:26.867Z</time>
      </trkpt>
      <trkpt lat="65.13505" lon="21.01649">
        <ele>106.585846</ele>
        <time>2020-09-27T09:56:11.869Z</time>
      </trkpt>
      <trkpt lat="65.134" lon="21.01429">
        <ele>104.033623</ele>
        <time>2020-09-27T10:25:45.386Z</time>
      </trkpt>
      <trkpt lat="65.13201" lon="21.01231">
        <ele>104.481144</ele>
        <time>2020-09-27T10:26:52.375Z</time>
      </trkpt>
      <trkpt lat="65.12985" lon="21.01363">
        <ele>106.018832</ele>
        <time>2020-09-27T10:27:52.382Z</time>
      </trkpt>
      <trkpt lat="65.12788" lon="21.01483">
        <ele>108.471375</ele>
        <time>2020-09-27T10:28:40.352Z</time>
      </trkpt>
      <trkpt lat="65.1259" lon="21.01604">
        <ele>106.466168</ele>
        <time>2020-09-27T10:29:22.361Z</time>
      </trkpt>
      <trkpt lat="65.12372" lon="21.01757">
        <ele>108.036931</ele>
        <time>2020-09-27T10:30:22.412Z</time>
      </trkpt>
      <trkpt lat="65.12187" lon="21.01944">
        <ele>112.020018</ele>
        <time>2020-09-27T10:31:07.381Z</time>
      </trkpt>
      <trkpt lat="65.11999" lon="21.02131">
        <ele>112.081984</ele>
        <time>2020-09-27T10:31:51.372Z</time>
      </trkpt>
      <trkpt lat="65.11782" lon="21.02358">
        <ele>114.061476</ele>
        <time>2020-09-27T10:32:51.368Z</time>
      </trkpt>
      <trkpt lat="65.11595" lon="21.02699">
        <ele>118.884945</ele>
        <time>2020-09-27T10:33:53.377Z</time>
      </trkpt>
      <trkpt lat="65.11424" lon="21.03083">
        <ele>110.616208</ele>
        <time>2020-09-27T10:34:33.362Z</time>
      </trkpt>
      <trkpt lat="65.1124" lon="21.03491">
        <ele>107.083983</ele>
        <time>2020-09-27T10:35:20.370Z</time>
      </trkpt>
      <trkpt lat="65.11091" lon="21.03827">
        <ele>107.971028</ele>
        <time>2020-09-27T10:36:04.380Z</time>
      </trkpt>
      <trkpt lat="65.10939" lon="21.0417">
        <ele>107.499396</ele>
        <time>2020-09-27T10:36:50.426Z</time>
      </trkpt>
      <trkpt lat="65.10785" lon="21.04516">
        <ele>110.897676</ele>
        <time>2020-09-27T10:37:43.369Z</time>
      </trkpt>
      <trkpt lat="65.10626" lon="21.04871">
        <ele>119.554982</ele>
        <time>2020-09-27T10:39:07.370Z</time>
      </trkpt>
      <trkpt lat="65.10436" lon="21.05026">
        <ele>132.330642</ele>
        <time>2020-09-27T10:40:18.373Z</time>
      </trkpt>
      <trkpt lat="65.10218" lon="21.05177">
        <ele>124.178643</ele>
        <time>2020-09-27T10:41:00.366Z</time>
      </trkpt>
      <trkpt lat="65.10014" lon="21.05556">
        <ele>108.713083</ele>
        <time>2020-09-27T10:41:42.387Z</time>
      </trkpt>
      <trkpt lat="65.09871" lon="21.05934">
        <ele>106.010169</ele>
        <time>2020-09-27T10:42:22.364Z</time>
      </trkpt>
      <trkpt lat="65.09718" lon="21.06349">
        <ele>107.178292</ele>
        <time>2020-09-27T10:43:13.363Z</time>
      </trkpt>
      <trkpt lat="65.09658" lon="21.06912">
        <ele>113.41361</ele>
        <time>2020-09-27T10:44:19.387Z</time>
      </trkpt>
      <trkpt lat="65.0962" lon="21.07428">
        <ele>112.718652</ele>
        <time>2020-09-27T10:45:15.374Z</time>
      </trkpt>
      <trkpt lat="65.09514" lon="21.07886">
        <ele>110.086652</ele>
        <time>2020-09-27T10:46:03.379Z</time>
      </trkpt>
      <trkpt lat="65.09396" lon="21.08368">
        <ele>110.703032</ele>
        <time>2020-09-27T10:47:06.403Z</time>
      </trkpt>
      <trkpt lat="65.09266" lon="21.08882">
        <ele>111.23302</ele>
        <time>2020-09-27T10:48:05.371Z</time>
      </trkpt>
      <trkpt lat="65.09118" lon="21.09197">
        <ele>109.328383</ele>
        <time>2020-09-27T10:48:45.382Z</time>
      </trkpt>
      <trkpt lat="65.08956" lon="21.0952">
        <ele>106.280247</ele>
        <time>2020-09-27T10:49:27.400Z</time>
      </trkpt>
      <trkpt lat="65.08784" lon="21.09861">
        <ele>110.809968</ele>
        <time>2020-09-27T10:50:27.376Z</time>
      </trkpt>
      <trkpt lat="65.08595" lon="21.10182">
        <ele>113.8136</ele>
        <time>2020-09-27T10:51:26.404Z</time>
      </trkpt>
      <trkpt lat="65.08415" lon="21.10486">
        <ele>112.254186</ele>
        <time>2020-09-27T10:52:13.408Z</time>
      </trkpt>
      <trkpt lat="65.08227" lon="21.108">
        <ele>108.281969</ele>
        <time>2020-09-27T10:52:55.379Z</time>
      </trkpt>
      <trkpt lat="65.08036" lon="21.11121">
        <ele>103.841571</ele>
        <time>2020-09-27T10:53:35.389Z</time>
      </trkpt>
      <trkpt lat="65.07833" lon="21.11463">
        <ele>100.968915</ele>
        <time>2020-09-27T10:54:17.374Z</time>
      </trkpt>
      <trkpt lat="65.07636" lon="21.11795">
        <ele>98.582211</ele>
        <time>2020-09-27T10:54:59.386Z</time>
      </trkpt>
      <trkpt lat="65.07455" lon="21.12097">
        <ele>97.055582</ele>
        <time>2020-09-27T10:55:39.376Z</time>
      </trkpt>
      <trkpt lat="65.07259" lon="21.12425">
        <ele>94.278143</ele>
        <time>2020-09-27T10:56:21.411Z</time>
      </trkpt>
      <trkpt lat="65.07058" lon="21.12762">
        <ele>93.188384</ele>
        <time>2020-09-27T10:57:03.398Z</time>
      </trkpt>
      <trkpt lat="65.06878" lon="21.13064">
        <ele>92.303764</ele>
        <time>2020-09-27T10:57:43.371Z</time>
      </trkpt>
      <trkpt lat="65.06681" lon="21.13321">
        <ele>90.722854</ele>
        <time>2020-09-27T10:58:25.375Z</time>
      </trkpt>
      <trkpt lat="65.06489" lon="21.13465">
        <ele>94.598563</ele>
        <time>2020-09-27T10:59:07.403Z</time>
      </trkpt>
      <trkpt lat="65.06274" lon="21.1362">
        <ele>95.901187</ele>
        <time>2020-09-27T10:59:58.406Z</time>
      </trkpt>
      <trkpt lat="65.06062" lon="21.1377">
        <ele>94.615211</ele>
        <time>2020-09-27T11:00:48.368Z</time>
      </trkpt>
      <trkpt lat="65.05869" lon="21.1391">
        <ele>91.686265</ele>
        <time>2020-09-27T11:01:31.383Z</time>
      </trkpt>
      <trkpt lat="65.05635" lon="21.14078">
        <ele>93.477512</ele>
        <time>2020-09-27T11:02:32.386Z</time>
      </trkpt>
      <trkpt lat="65.05413" lon="21.14206">
        <ele>93.144409</ele>
        <time>2020-09-27T11:03:21.388Z</time>
      </trkpt>
      <trkpt lat="65.05184" lon="21.1423">
        <ele>94.823983</ele>
        <time>2020-09-27T11:04:03.417Z</time>
      </trkpt>
      <trkpt lat="65.04953" lon="21.14261">
        <ele>86.859439</ele>
        <time>2020-09-27T11:04:46.373Z</time>
      </trkpt>
      <trkpt lat="65.04704" lon="21.14291">
        <ele>82.644197</ele>
        <time>2020-09-27T11:05:26.401Z</time>
      </trkpt>
      <trkpt lat="65.04474" lon="21.14325">
        <ele>84.321666</ele>
        <time>2020-09-27T11:06:08.407Z</time>
      </trkpt>
      <trkpt lat="65.04261" lon="21.14278">
        <ele>86.478283</ele>
        <time>2020-09-27T11:06:54.372Z</time>
      </trkpt>
      <trkpt lat="65.04042" lon="21.14213">
        <ele>84.557906</ele>
        <time>2020-09-27T11:07:34.395Z</time>
      </trkpt>
      <trkpt lat="65.03839" lon="21.14414">
        <ele>80.855533</ele>
        <time>2020-09-27T11:08:20.403Z</time>
      </trkpt>
      <trkpt lat="65.03663" lon="21.14792">
        <ele>78.951118</ele>
        <time>2020-09-27T11:09:13.375Z</time>
      </trkpt>
      <trkpt lat="65.03504" lon="21.15205">
        <ele>84.765121</ele>
        <time>2020-09-27T11:10:16.402Z</time>
      </trkpt>
      <trkpt lat="65.03315" lon="21.15525">
        <ele>86.244434</ele>
        <time>2020-09-27T11:11:10.446Z</time>
      </trkpt>
      <trkpt lat="65.03095" lon="21.15439">
        <ele>80.886405</ele>
        <time>2020-09-27T11:12:01.383Z</time>
      </trkpt>
      <trkpt lat="65.0288" lon="21.15261">
        <ele>90.01677</ele>
        <time>2020-09-27T11:13:01.405Z</time>
      </trkpt>
      <trkpt lat="65.02644" lon="21.15277">
        <ele>89.243674</ele>
        <time>2020-09-27T11:13:55.390Z</time>
      </trkpt>
      <trkpt lat="65.02427" lon="21.15299">
        <ele>83.879132</ele>
        <time>2020-09-27T11:14:41.407Z</time>
      </trkpt>
      <trkpt lat="65.02216" lon="21.15317">
        <ele>84.371237</ele>
        <time>2020-09-27T11:15:34.428Z</time>
      </trkpt>
      <trkpt lat="65.02013" lon="21.15333">
        <ele>86.364242</ele>
        <time>2020-09-27T11:16:24.399Z</time>
      </trkpt>
      <trkpt lat="65.01781" lon="21.1535">
        <ele>87.16746</ele>
        <time>2020-09-27T11:17:27.386Z</time>
      </trkpt>
      <trkpt lat="65.01569" lon="21.1531">
        <ele>86.650815</ele>
        <time>2020-09-27T11:18:10.396Z</time>
      </trkpt>
      <trkpt lat="65.01321" lon="21.15203">
        <ele>84.091697</ele>
        <time>2020-09-27T11:18:54.386Z</time>
      </trkpt>
      <trkpt lat="65.01086" lon="21.15094">
        <ele>82.747456</ele>
        <time>2020-09-27T11:19:36.394Z</time>
      </trkpt>
      <trkpt lat="65.00795" lon="21.14835">
        <ele>75.932339</ele>
        <time>2020-09-27T11:20:18.403Z</time>
      </trkpt>
      <trkpt lat="65.00578" lon="21.1471">
        <ele>73.757227</ele>
        <time>2020-09-27T11:20:58.396Z</time>
      </trkpt>
      <trkpt lat="65.00337" lon="21.14631">
        <ele>68.709224</ele>
        <time>2020-09-27T11:21:40.427Z</time>
      </trkpt>
      <trkpt lat="65.00079" lon="21.14803">
        <ele>63.70125</ele>
        <time>2020-09-27T11:22:22.395Z</time>
      </trkpt>
      <trkpt lat="64.99907" lon="21.15077">
        <ele>64.845211</ele>
        <time>2020-09-27T11:23:05.388Z</time>
      </trkpt>
      <trkpt lat="64.99731" lon="21.15366">
        <ele>64.94884</ele>
        <time>2020-09-27T11:23:45.397Z</time>
      </trkpt>
      <trkpt lat="64.9959" lon="21.15752">
        <ele>64.548316</ele>
        <time>2020-09-27T11:24:27.396Z</time>
      </trkpt>
      <trkpt lat="64.99416" lon="21.16094">
        <ele>65.364176</ele>
        <time>2020-09-27T11:25:17.454Z</time>
      </trkpt>
      <trkpt lat="64.99215" lon="21.16298">
        <ele>68.366267</ele>
        <time>2020-09-27T11:26:06.425Z</time>
      </trkpt>
      <trkpt lat="64.98943" lon="21.16499">
        <ele>64.539288</ele>
        <time>2020-09-27T11:26:48.414Z</time>
      </trkpt>
      <trkpt lat="64.98743" lon="21.16802">
        <ele>61.517568</ele>
        <time>2020-09-27T11:27:39.406Z</time>
      </trkpt>
      <trkpt lat="64.98587" lon="21.17083">
        <ele>59.758764</ele>
        <time>2020-09-27T11:28:19.409Z</time>
      </trkpt>
      <trkpt lat="64.98385" lon="21.17296">
        <ele>55.453893</ele>
        <time>2020-09-27T11:29:01.405Z</time>
      </trkpt>
      <trkpt lat="64.98125" lon="21.17486">
        <ele>55.922022</ele>
        <time>2020-09-27T11:29:43.401Z</time>
      </trkpt>
      <trkpt lat="64.97924" lon="21.17643">
        <ele>53.742938</ele>
        <time>2020-09-27T11:30:23.435Z</time>
      </trkpt>
      <trkpt lat="64.97704" lon="21.17794">
        <ele>52.80394</ele>
        <time>2020-09-27T11:31:05.414Z</time>
      </trkpt>
      <trkpt lat="64.97473" lon="21.17919">
        <ele>51.483334</ele>
        <time>2020-09-27T11:31:47.401Z</time>
      </trkpt>
      <trkpt lat="64.97222" lon="21.17917">
        <ele>44.966403</ele>
        <time>2020-09-27T11:32:27.402Z</time>
      </trkpt>
      <trkpt lat="64.9697" lon="21.17907">
        <ele>43.44681</ele>
        <time>2020-09-27T11:33:09.418Z</time>
      </trkpt>
      <trkpt lat="64.9671" lon="21.17866">
        <ele>45.046743</ele>
        <time>2020-09-27T11:33:51.419Z</time>
      </trkpt>
      <trkpt lat="64.9649" lon="21.17803">
        <ele>48.226779</ele>
        <time>2020-09-27T12:06:36.290Z</time>
      </trkpt>
      <trkpt lat="64.96253" lon="21.17741">
        <ele>45.519932</ele>
        <time>2020-09-27T12:07:32.243Z</time>
      </trkpt>
      <trkpt lat="64.96095" lon="21.17972">
        <ele>44.031477</ele>
        <time>2020-09-27T12:08:19.247Z</time>
      </trkpt>
      <trkpt lat="64.96001" lon="21.18412">
        <ele>43.710754</ele>
        <time>2020-09-27T12:09:01.261Z</time>
      </trkpt>
      <trkpt lat="64.95912" lon="21.18821">
        <ele>44.783858</ele>
        <time>2020-09-27T12:09:44.261Z</time>
      </trkpt>
      <trkpt lat="64.95795" lon="21.19309">
        <ele>50.350718</ele>
        <time>2020-09-27T12:10:47.273Z</time>
      </trkpt>
      <trkpt lat="64.9562" lon="21.19278">
        <ele>54.684381</ele>
        <time>2020-09-27T12:12:02.262Z</time>
      </trkpt>
      <trkpt lat="64.95455" lon="21.19712">
        <ele>45.245706</ele>
        <time>2020-09-27T12:12:42.247Z</time>
      </trkpt>
      <trkpt lat="64.95294" lon="21.2015">
        <ele>39.730207</ele>
        <time>2020-09-27T12:13:27.250Z</time>
      </trkpt>
      <trkpt lat="64.95153" lon="21.19834">
        <ele>43.303147</ele>
        <time>2020-09-27T12:14:33.241Z</time>
      </trkpt>
      <trkpt lat="64.94955" lon="21.19864">
        <ele>46.903495</ele>
        <time>2020-09-27T12:15:41.271Z</time>
      </trkpt>
      <trkpt lat="64.94724" lon="21.20096">
        <ele>43.51151</ele>
        <time>2020-09-27T12:16:32.273Z</time>
      </trkpt>
      <trkpt lat="64.94477" lon="21.20329">
        <ele>38.12773</ele>
        <time>2020-09-27T12:17:16.353Z</time>
      </trkpt>
      <trkpt lat="64.9425" lon="21.20552">
        <ele>34.212375</ele>
        <time>2020-09-27T12:17:56.263Z</time>
      </trkpt>
      <trkpt lat="64.94063" lon="21.20883">
        <ele>30.92505</ele>
        <time>2020-09-27T12:18:38.266Z</time>
      </trkpt>
      <trkpt lat="64.93905" lon="21.2118">
        <ele>32.815642</ele>
        <time>2020-09-27T12:19:20.253Z</time>
      </trkpt>
      <trkpt lat="64.93743" lon="21.21491">
        <ele>37.903343</ele>
        <time>2020-09-27T12:20:02.266Z</time>
      </trkpt>
      <trkpt lat="64.93581" lon="21.21806">
        <ele>50.220656</ele>
        <time>2020-09-27T12:21:11.243Z</time>
      </trkpt>
      <trkpt lat="64.93416" lon="21.22115">
        <ele>55.001457</ele>
        <time>2020-09-27T12:22:29.251Z</time>
      </trkpt>
      <trkpt lat="64.93242" lon="21.2243">
        <ele>48.412924</ele>
        <time>2020-09-27T12:23:19.253Z</time>
      </trkpt>
      <trkpt lat="64.93043" lon="21.22332">
        <ele>50.782295</ele>
        <time>2020-09-27T12:24:24.269Z</time>
      </trkpt>
      <trkpt lat="64.9284" lon="21.22173">
        <ele>57.507004</ele>
        <time>2020-09-27T12:25:37.273Z</time>
      </trkpt>
      <trkpt lat="64.92652" lon="21.21874">
        <ele>60.413106</ele>
        <time>2020-09-27T12:26:39.259Z</time>
      </trkpt>
      <trkpt lat="64.92412" lon="21.21728">
        <ele>46.581886</ele>
        <time>2020-09-27T12:27:19.294Z</time>
      </trkpt>
      <trkpt lat="64.92151" lon="21.21934">
        <ele>36.426878</ele>
        <time>2020-09-27T12:28:01.253Z</time>
      </trkpt>
      <trkpt lat="64.91918" lon="21.22126">
        <ele>36.106395</ele>
        <time>2020-09-27T12:28:43.275Z</time>
      </trkpt>
      <trkpt lat="64.91769" lon="21.21875">
        <ele>38.949789</ele>
        <time>2020-09-27T12:29:49.244Z</time>
      </trkpt>
      <trkpt lat="64.91569" lon="21.21672">
        <ele>47.412675</ele>
        <time>2020-09-27T12:30:46.258Z</time>
      </trkpt>
      <trkpt lat="64.91342" lon="21.21391">
        <ele>52.092114</ele>
        <time>2020-09-27T12:31:40.253Z</time>
      </trkpt>
      <trkpt lat="64.9117" lon="21.21128">
        <ele>59.793002</ele>
        <time>2020-09-27T12:33:11.249Z</time>
      </trkpt>
      <trkpt lat="64.90963" lon="21.20847">
        <ele>51.983944</ele>
        <time>2020-09-27T12:34:11.255Z</time>
      </trkpt>
      <trkpt lat="64.90705" lon="21.20683">
        <ele>38.779489</ele>
        <time>2020-09-27T12:34:53.262Z</time>
      </trkpt>
      <trkpt lat="64.90464" lon="21.20514">
        <ele>39.193875</ele>
        <time>2020-09-27T12:35:35.266Z</time>
      </trkpt>
      <trkpt lat="64.9027" lon="21.20136">
        <ele>48.579859</ele>
        <time>2020-09-27T12:36:21.256Z</time>
      </trkpt>
      <trkpt lat="64.90095" lon="21.19719">
        <ele>50.433938</ele>
        <time>2020-09-27T12:37:06.258Z</time>
      </trkpt>
      <trkpt lat="64.89937" lon="21.19339">
        <ele>47.168239</ele>
        <time>2020-09-27T12:38:09.247Z</time>
      </trkpt>
      <trkpt lat="64.89766" lon="21.19021">
        <ele>34.580666</ele>
        <time>2020-09-27T12:38:55.324Z</time>
      </trkpt>
      <trkpt lat="64.89598" lon="21.18629">
        <ele>41.665931</ele>
        <time>2020-09-27T12:40:03.283Z</time>
      </trkpt>
      <trkpt lat="64.89441" lon="21.18248">
        <ele>64.657534</ele>
        <time>2020-09-27T12:41:41.292Z</time>
      </trkpt>
      <trkpt lat="64.89275" lon="21.17958">
        <ele>60.578096</ele>
        <time>2020-09-27T12:42:46.294Z</time>
      </trkpt>
      <trkpt lat="64.89035" lon="21.17809">
        <ele>48.926611</ele>
        <time>2020-09-27T12:45:51.272Z</time>
      </trkpt>
      <trkpt lat="64.88855" lon="21.17546">
        <ele>46.090477</ele>
        <time>2020-09-27T12:46:46.255Z</time>
      </trkpt>
      <trkpt lat="64.88725" lon="21.1708">
        <ele>43.549193</ele>
        <time>2020-09-27T12:47:42.280Z</time>
      </trkpt>
      <trkpt lat="64.88681" lon="21.16511">
        <ele>31.410094</ele>
        <time>2020-09-27T12:48:24.262Z</time>
      </trkpt>
      <trkpt lat="64.8864" lon="21.15981">
        <ele>40.937921</ele>
        <time>2020-09-27T12:49:20.304Z</time>
      </trkpt>
      <trkpt lat="64.88533" lon="21.15582">
        <ele>60.411708</ele>
        <time>2020-09-27T12:50:52.285Z</time>
      </trkpt>
      <trkpt lat="64.88407" lon="21.15188">
        <ele>58.692415</ele>
        <time>2020-09-27T12:51:58.294Z</time>
      </trkpt>
      <trkpt lat="64.88269" lon="21.14769">
        <ele>56.630167</ele>
        <time>2020-09-27T12:53:01.276Z</time>
      </trkpt>
      <trkpt lat="64.8821" lon="21.14292">
        <ele>60.221394</ele>
        <time>2020-09-27T12:54:07.305Z</time>
      </trkpt>
      <trkpt lat="64.88193" lon="21.13768">
        <ele>54.406357</ele>
        <time>2020-09-27T12:54:50.249Z</time>
      </trkpt>
      <trkpt lat="64.88093" lon="21.13282">
        <ele>56.157905</ele>
        <time>2020-09-27T12:55:46.301Z</time>
      </trkpt>
      <trkpt lat="64.87979" lon="21.128">
        <ele>60.453145</ele>
        <time>2020-09-27T12:56:49.300Z</time>
      </trkpt>
      <trkpt lat="64.87879" lon="21.12374">
        <ele>70.046408</ele>
        <time>2020-09-27T12:58:08.271Z</time>
      </trkpt>
      <trkpt lat="64.87773" lon="21.11915">
        <ele>65.702637</ele>
        <time>2020-09-27T12:59:01.298Z</time>
      </trkpt>
      <trkpt lat="64.87631" lon="21.11387">
        <ele>53.480835</ele>
        <time>2020-09-27T12:59:39.280Z</time>
      </trkpt>
      <trkpt lat="64.8762" lon="21.10849">
        <ele>53.482121</ele>
        <time>2020-09-27T13:00:32.253Z</time>
      </trkpt>
      <trkpt lat="64.87617" lon="21.10347">
        <ele>58.020102</ele>
        <time>2020-09-27T13:01:18.287Z</time>
      </trkpt>
      <trkpt lat="64.87567" lon="21.09803">
        <ele>51.258054</ele>
        <time>2020-09-27T13:02:11.293Z</time>
      </trkpt>
      <trkpt lat="64.8754" lon="21.09257">
        <ele>52.075521</ele>
        <time>2020-09-27T13:03:04.256Z</time>
      </trkpt>
      <trkpt lat="64.87502" lon="21.08773">
        <ele>53.376452</ele>
        <time>2020-09-27T13:04:09.285Z</time>
      </trkpt>
      <trkpt lat="64.87345" lon="21.08284">
        <ele>41.369278</ele>
        <time>2020-09-27T13:04:40.266Z</time>
      </trkpt>
      <trkpt lat="64.87342" lon="21.07783">
        <ele>35.272167</ele>
        <time>2020-09-27T13:05:20.253Z</time>
      </trkpt>
      <trkpt lat="64.87315" lon="21.07312">
        <ele>33.379797</ele>
        <time>2020-09-27T13:06:02.288Z</time>
      </trkpt>
      <trkpt lat="64.874" lon="21.06845">
        <ele>38.738743</ele>
        <time>2020-09-27T13:07:14.272Z</time>
      </trkpt>
      <trkpt lat="64.87319" lon="21.06348">
        <ele>41.336081</ele>
        <time>2020-09-27T13:08:17.262Z</time>
      </trkpt>
      <trkpt lat="64.87175" lon="21.05957">
        <ele>40.169856</ele>
        <time>2020-09-27T13:09:09.278Z</time>
      </trkpt>
      <trkpt lat="64.87107" lon="21.05469">
        <ele>35.897535</ele>
        <time>2020-09-27T13:09:52.290Z</time>
      </trkpt>
      <trkpt lat="64.87043" lon="21.04889">
        <ele>40.044269</ele>
        <time>2020-09-27T13:10:55.272Z</time>
      </trkpt>
      <trkpt lat="64.86877" lon="21.0455">
        <ele>35.684915</ele>
        <time>2020-09-27T13:11:31.278Z</time>
      </trkpt>
      <trkpt lat="64.8676" lon="21.04058">
        <ele>30.96587</ele>
        <time>2020-09-27T13:12:09.269Z</time>
      </trkpt>
      <trkpt lat="64.86674" lon="21.03566">
        <ele>30.764975</ele>
        <time>2020-09-27T13:12:58.267Z</time>
      </trkpt>
      <trkpt lat="64.86628" lon="21.03069">
        <ele>32.443024</ele>
        <time>2020-09-27T13:13:55.265Z</time>
      </trkpt>
      <trkpt lat="64.86644" lon="21.02589">
        <ele>29.200768</ele>
        <time>2020-09-27T13:14:41.272Z</time>
      </trkpt>
      <trkpt lat="64.86757" lon="21.02169">
        <ele>28.512465</ele>
        <time>2020-09-27T13:15:24.302Z</time>
      </trkpt>
      <trkpt lat="64.86766" lon="21.01725">
        <ele>31.979326</ele>
        <time>2020-09-27T13:16:19.282Z</time>
      </trkpt>
      <trkpt lat="64.86759" lon="21.01311">
        <ele>39.769677</ele>
        <time>2020-09-27T13:17:26.278Z</time>
      </trkpt>
      <trkpt lat="64.86583" lon="21.0107">
        <ele>52.047811</ele>
        <time>2020-09-27T13:19:03.295Z</time>
      </trkpt>
      <trkpt lat="64.86397" lon="21.00887">
        <ele>60.650468</ele>
        <time>2020-09-27T13:20:27.294Z</time>
      </trkpt>
      <trkpt lat="64.86198" lon="21.00706">
        <ele>60.086349</ele>
        <time>2020-09-27T13:21:47.286Z</time>
      </trkpt>
      <trkpt lat="64.85969" lon="21.00855">
        <ele>58.305705</ele>
        <time>2020-09-27T13:22:32.278Z</time>
      </trkpt>
      <trkpt lat="64.85741" lon="21.00604">
        <ele>38.574681</ele>
        <time>2020-09-27T13:23:05.294Z</time>
      </trkpt>
      <trkpt lat="64.85578" lon="21.00295">
        <ele>31.180318</ele>
        <time>2020-09-27T13:23:47.273Z</time>
      </trkpt>
      <trkpt lat="64.85478" lon="20.99855">
        <ele>26.96873</ele>
        <time>2020-09-27T13:24:29.275Z</time>
      </trkpt>
      <trkpt lat="64.85272" lon="20.99634">
        <ele>28.672063</ele>
        <time>2020-09-27T13:25:30.289Z</time>
      </trkpt>
      <trkpt lat="64.85164" lon="20.9921">
        <ele>32.686695</ele>
        <time>2020-09-27T13:26:29.303Z</time>
      </trkpt>
      <trkpt lat="64.85009" lon="20.98822">
        <ele>28.024508</ele>
        <time>2020-09-27T13:27:11.270Z</time>
      </trkpt>
      <trkpt lat="64.84921" lon="20.98371">
        <ele>27.947776</ele>
        <time>2020-09-27T13:27:57.265Z</time>
      </trkpt>
      <trkpt lat="64.8478" lon="20.98064">
        <ele>25.308035</ele>
        <time>2020-09-27T13:28:40.290Z</time>
      </trkpt>
      <trkpt lat="64.84556" lon="20.98043">
        <ele>28.745452</ele>
        <time>2020-09-27T13:29:32.268Z</time>
      </trkpt>
      <trkpt lat="64.84335" lon="20.98171">
        <ele>37.816337</ele>
        <time>2020-09-27T13:30:41.271Z</time>
      </trkpt>
      <trkpt lat="64.8415" lon="20.98336">
        <ele>47.18941</ele>
        <time>2020-09-27T13:32:22.293Z</time>
      </trkpt>
      <trkpt lat="64.83988" lon="20.98515">
        <ele>40.854396</ele>
        <time>2020-09-27T13:33:24.296Z</time>
      </trkpt>
      <trkpt lat="64.83759" lon="20.98426">
        <ele>35.347175</ele>
        <time>2020-09-27T13:34:12.290Z</time>
      </trkpt>
      <trkpt lat="64.83537" lon="20.98503">
        <ele>38.143237</ele>
        <time>2020-09-27T13:35:02.287Z</time>
      </trkpt>
      <trkpt lat="64.83343" lon="20.98765">
        <ele>42.490838</ele>
        <time>2020-09-27T13:35:49.284Z</time>
      </trkpt>
      <trkpt lat="64.8322" lon="20.98798">
        <ele>42.862548</ele>
        <time>2020-09-27T13:52:57.281Z</time>
      </trkpt>
      <trkpt lat="64.83199" lon="20.98466">
        <ele>40.98426</ele>
        <time>2020-09-27T14:00:18.270Z</time>
      </trkpt>
      <trkpt lat="64.83102" lon="20.988">
        <ele>43.682869</ele>
        <time>2020-09-27T14:01:28.283Z</time>
      </trkpt>
      <trkpt lat="64.82856" lon="20.98817">
        <ele>42.950904</ele>
        <time>2020-09-27T14:02:46.290Z</time>
      </trkpt>
      <trkpt lat="64.82663" lon="20.98639">
        <ele>60.310499</ele>
        <time>2020-09-27T14:04:22.293Z</time>
      </trkpt>
      <trkpt lat="64.82539" lon="20.98254">
        <ele>65.207038</ele>
        <time>2020-09-27T14:05:50.293Z</time>
      </trkpt>
      <trkpt lat="64.82376" lon="20.97955">
        <ele>67.183832</ele>
        <time>2020-09-27T14:07:15.275Z</time>
      </trkpt>
      <trkpt lat="64.82189" lon="20.97759">
        <ele>72.839649</ele>
        <time>2020-09-27T14:08:46.319Z</time>
      </trkpt>
      <trkpt lat="64.82019" lon="20.97508">
        <ele>83.270284</ele>
        <time>2020-09-27T14:10:24.273Z</time>
      </trkpt>
      <trkpt lat="64.81821" lon="20.97355">
        <ele>90.444136</ele>
        <time>2020-09-27T14:11:55.285Z</time>
      </trkpt>
      <trkpt lat="64.81598" lon="20.97092">
        <ele>83.959151</ele>
        <time>2020-09-27T14:12:42.293Z</time>
      </trkpt>
      <trkpt lat="64.81414" lon="20.96933">
        <ele>81.506396</ele>
        <time>2020-09-27T14:13:22.281Z</time>
      </trkpt>
      <trkpt lat="64.81208" lon="20.9677">
        <ele>86.072806</ele>
        <time>2020-09-27T14:14:13.295Z</time>
      </trkpt>
      <trkpt lat="64.81001" lon="20.96547">
        <ele>93.448665</ele>
        <time>2020-09-27T14:15:22.296Z</time>
      </trkpt>
      <trkpt lat="64.80833" lon="20.96186">
        <ele>91.092753</ele>
        <time>2020-09-27T14:16:06.303Z</time>
      </trkpt>
      <trkpt lat="64.80697" lon="20.95785">
        <ele>86.483481</ele>
        <time>2020-09-27T14:16:52.294Z</time>
      </trkpt>
      <trkpt lat="64.80444" lon="20.95626">
        <ele>78.076448</ele>
        <time>2020-09-27T14:17:23.324Z</time>
      </trkpt>
      <trkpt lat="64.80264" lon="20.95225">
        <ele>75.596356</ele>
        <time>2020-09-27T14:18:05.298Z</time>
      </trkpt>
      <trkpt lat="64.80078" lon="20.9489">
        <ele>79.744869</ele>
        <time>2020-09-27T14:18:45.295Z</time>
      </trkpt>
      <trkpt lat="64.79865" lon="20.94675">
        <ele>86.664355</ele>
        <time>2020-09-27T14:19:32.306Z</time>
      </trkpt>
      <trkpt lat="64.79605" lon="20.94436">
        <ele>71.295385</ele>
        <time>2020-09-27T14:20:14.327Z</time>
      </trkpt>
      <trkpt lat="64.79375" lon="20.94065">
        <ele>62.005397</ele>
        <time>2020-09-27T14:20:54.286Z</time>
      </trkpt>
      <trkpt lat="64.7918" lon="20.93817">
        <ele>62.534753</ele>
        <time>2020-09-27T14:21:40.285Z</time>
      </trkpt>
      <trkpt lat="64.79009" lon="20.93601">
        <ele>64.990739</ele>
        <time>2020-09-27T14:22:22.285Z</time>
      </trkpt>
      <trkpt lat="64.78848" lon="20.9324">
        <ele>73.693166</ele>
        <time>2020-09-27T14:23:17.305Z</time>
      </trkpt>
      <trkpt lat="64.78643" lon="20.93134">
        <ele>82.070074</ele>
        <time>2020-09-27T14:24:25.300Z</time>
      </trkpt>
      <trkpt lat="64.78464" lon="20.92888">
        <ele>81.8891</ele>
        <time>2020-09-27T14:25:29.277Z</time>
      </trkpt>
      <trkpt lat="64.78324" lon="20.92576">
        <ele>91.189122</ele>
        <time>2020-09-27T14:26:55.285Z</time>
      </trkpt>
      <trkpt lat="64.7811" lon="20.92514">
        <ele>86.230255</ele>
        <time>2020-09-27T14:28:03.294Z</time>
      </trkpt>
      <trkpt lat="64.77886" lon="20.92269">
        <ele>88.739736</ele>
        <time>2020-09-27T14:29:06.288Z</time>
      </trkpt>
      <trkpt lat="64.77687" lon="20.92376">
        <ele>93.796949</ele>
        <time>2020-09-27T14:30:09.288Z</time>
      </trkpt>
      <trkpt lat="64.77476" lon="20.92215">
        <ele>93.693513</ele>
        <time>2020-09-27T14:31:06.302Z</time>
      </trkpt>
      <trkpt lat="64.7731" lon="20.91935">
        <ele>90.677952</ele>
        <time>2020-09-27T14:31:48.325Z</time>
      </trkpt>
      <trkpt lat="64.7708" lon="20.91639">
        <ele>87.985824</ele>
        <time>2020-09-27T14:32:32.297Z</time>
      </trkpt>
      <trkpt lat="64.76959" lon="20.91168">
        <ele>74.818127</ele>
        <time>2020-09-27T14:32:52.329Z</time>
      </trkpt>
      <trkpt lat="64.76813" lon="20.90745">
        <ele>55.312682</ele>
        <time>2020-09-27T14:33:13.289Z</time>
      </trkpt>
      <trkpt lat="64.76624" lon="20.90563">
        <ele>44.079414</ele>
        <time>2020-09-27T14:33:34.320Z</time>
      </trkpt>
      <trkpt lat="64.76419" lon="20.90836">
        <ele>38.643081</ele>
        <time>2020-09-27T14:34:11.303Z</time>
      </trkpt>
      <trkpt lat="64.76264" lon="20.91215">
        <ele>38.024843</ele>
        <time>2020-09-27T14:35:18.324Z</time>
      </trkpt>
      <trkpt lat="64.76086" lon="20.91573">
        <ele>39.317886</ele>
        <time>2020-09-27T14:36:25.288Z</time>
      </trkpt>
      <trkpt lat="64.75978" lon="20.92069">
        <ele>40.43116</ele>
        <time>2020-09-27T14:37:25.315Z</time>
      </trkpt>
      <trkpt lat="64.7591" lon="20.92546">
        <ele>43.238604</ele>
        <time>2020-09-27T14:38:15.293Z</time>
      </trkpt>
      <trkpt lat="64.75941" lon="20.92992">
        <ele>43.447643</ele>
        <time>2020-09-27T14:39:59.302Z</time>
      </trkpt>
      <trkpt lat="64.76052" lon="20.93393">
        <ele>48.780677</ele>
        <time>2020-09-27T14:41:05.333Z</time>
      </trkpt>
      <trkpt lat="64.76116" lon="20.93858">
        <ele>63.807014</ele>
        <time>2020-09-27T14:42:49.292Z</time>
      </trkpt>
      <trkpt lat="64.76105" lon="20.94314">
        <ele>86.688883</ele>
        <time>2020-09-27T14:45:06.336Z</time>
      </trkpt>
      <trkpt lat="64.76078" lon="20.94809">
        <ele>84.390147</ele>
        <time>2020-09-27T14:46:03.284Z</time>
      </trkpt>
      <trkpt lat="64.75943" lon="20.95125">
        <ele>70.302154</ele>
        <time>2020-09-27T14:47:24.296Z</time>
      </trkpt>
      <trkpt lat="64.75852" lon="20.95639">
        <ele>59.061771</ele>
        <time>2020-09-27T14:48:06.304Z</time>
      </trkpt>
      <trkpt lat="64.75822" lon="20.96117">
        <ele>58.382842</ele>
        <time>2020-09-27T14:49:06.293Z</time>
      </trkpt>
      <trkpt lat="64.75872" lon="20.96579">
        <ele>58.231913</ele>
        <time>2020-09-27T14:50:15.309Z</time>
      </trkpt>
      <trkpt lat="64.75999" lon="20.96998">
        <ele>65.700077</ele>
        <time>2020-09-27T14:51:49.289Z</time>
      </trkpt>
      <trkpt lat="64.76095" lon="20.97362">
        <ele>64.613283</ele>
        <time>2020-09-27T14:53:05.299Z</time>
      </trkpt>
    </trkseg>
  </trk>
</gpx>